Air Quality Table

TIMESTAMP NO2 SO2 O3 PM10 PM2.5 TEMP HUM AIRPRES WS WD NO
2022-06-26 01:00 25.63 µg/m3 0.13 µg/m3 64.95 µg/m3 51.8 µg/m3 10.02 µg/m3 28.78 °C 39.29 % 1,006.70 mbar 1.49 m/s 207.22 Deg 2.46 µg/m3
2022-06-25 17:00 16.05 µg/m3 0.14 µg/m3 81.46 µg/m3 34.73 µg/m3 9.33 µg/m3 31.23 °C 37.94 % 1,007.35 mbar 3.11 m/s 180.94 Deg 3.67 µg/m3
2022-06-25 09:00 34.68 µg/m3 0.3 µg/m3 32.95 µg/m3 26.33 µg/m3 7.32 µg/m3 28.62 °C 38.59 % 1,006.69 mbar 1.22 m/s 255.43 Deg 9.68 µg/m3
2022-06-25 01:00 30.25 µg/m3 0.18 µg/m3 47.7 µg/m3 43.3 µg/m3 13.15 µg/m3 28.71 °C 52.78 % 1,006.32 mbar 1.4 m/s 231.58 Deg 4.38 µg/m3
2022-06-24 17:00 18.35 µg/m3 0.22 µg/m3 85.69 µg/m3 48.77 µg/m3 12.23 µg/m3 33.28 °C 37.35 % 1,006.57 mbar 2.31 m/s 184.5 Deg 3.66 µg/m3
2022-06-24 09:00 44.71 µg/m3 0.32 µg/m3 58.86 µg/m3 38.66 µg/m3 7.33 µg/m3 29.25 °C 24.12 % 1,006.35 mbar 2.11 m/s 291.48 Deg 10.36 µg/m3
2022-06-24 01:00 21.47 µg/m3 0.15 µg/m3 64.47 µg/m3 38.4 µg/m3 13.06 µg/m3 28.22 °C 49.23 % 1,007.41 mbar 1.51 m/s 238.84 Deg 1.12 µg/m3
2022-06-23 17:00 16.28 µg/m3 0.08 µg/m3 95.15 µg/m3 36.57 µg/m3 9.42 µg/m3 32.84 °C 31.12 % 1,007.48 mbar 2.77 m/s 311.82 Deg 3.1 µg/m3
2022-06-23 09:00 32.53 µg/m3 0.07 µg/m3 62.61 µg/m3 32.76 µg/m3 12.7 µg/m3 26.68 °C 44.8 % 1,007.03 mbar 1.59 m/s 292.6 Deg 5.6 µg/m3
2022-06-23 01:00 18.82 µg/m3 -0.02 µg/m3 79.53 µg/m3 25.68 µg/m3 8.61 µg/m3 27.71 °C 38.88 % 1,006.97 mbar 1.59 m/s 302.37 Deg 1.03 µg/m3
2022-06-22 17:00 11.06 µg/m3 0.02 µg/m3 95.45 µg/m3 30.12 µg/m3 7.29 µg/m3 30.45 °C 42.83 % 1,007.32 mbar 2.63 m/s 279.65 Deg 2.26 µg/m3
2022-06-22 09:00 27.76 µg/m3 0.01 µg/m3 53.49 µg/m3 21.13 µg/m3 9.5 µg/m3 24.87 °C 74.35 % 1,006.91 mbar 1.13 m/s 291.89 Deg 5.9 µg/m3
2022-06-22 01:00 8.85 µg/m3 -0.08 µg/m3 72.69 µg/m3 26.54 µg/m3 10.02 µg/m3 25.54 °C 72.4 % 1,008.06 mbar 1.59 m/s 276.48 Deg 0.87 µg/m3
2022-06-21 17:00 9.42 µg/m3 -0.06 µg/m3 115.02 µg/m3 32.67 µg/m3 10 µg/m3 28.23 °C 59.45 % 1,008.95 mbar 3.34 m/s 194.02 Deg 1.85 µg/m3
2022-06-21 09:00 31.89 µg/m3 0.03 µg/m3 77.78 µg/m3 29.24 µg/m3 12.31 µg/m3 24.49 °C 72.14 % 1,009.05 mbar 1.15 m/s 323.97 Deg 4.35 µg/m3
2022-06-21 01:00 13.06 µg/m3 -0.06 µg/m3 97.94 µg/m3 26.07 µg/m3 9.78 µg/m3 24.74 °C 75.86 % 1,009.41 mbar 1.53 m/s 203.38 Deg 0.86 µg/m3
2022-06-20 17:00 4.38 µg/m3 -0.08 µg/m3 110.74 µg/m3 13.64 µg/m3 6 µg/m3 26.45 °C 61.19 % 1,009.07 mbar 2.96 m/s 187.04 Deg 0.97 µg/m3
2022-06-20 09:00 16.04 µg/m3 -0.04 µg/m3 73.25 µg/m3 26.57 µg/m3 11.87 µg/m3 23.33 °C 87.2 % 1,008.29 mbar 1.31 m/s 125.77 Deg 2.15 µg/m3
2022-06-20 01:00 3.31 µg/m3 -0.08 µg/m3 90.89 µg/m3 24.75 µg/m3 11.98 µg/m3 23.23 °C 94.95 % 1,008.14 mbar 1.84 m/s 103.57 Deg 0.55 µg/m3
2022-06-19 17:00 1.6 µg/m3 -0.1 µg/m3 116.09 µg/m3 18.81 µg/m3 8.14 µg/m3 25.06 °C 81.22 % 1,008.26 mbar 4.33 m/s 175.38 Deg 0.62 µg/m3
2022-06-19 09:00 5.61 µg/m3 -0.09 µg/m3 97.76 µg/m3 23.71 µg/m3 12.15 µg/m3 23.06 °C 94.28 % 1,008.08 mbar 1.76 m/s 171.47 Deg 0.75 µg/m3
2022-06-19 01:00 2.91 µg/m3 -0.11 µg/m3 103.33 µg/m3 23.52 µg/m3 12.82 µg/m3 23.31 °C 94.56 % 1,007.84 mbar 3.18 m/s 167.99 Deg 0.58 µg/m3
2022-06-18 17:00 3.34 µg/m3 -0.07 µg/m3 101.79 µg/m3 17.79 µg/m3 9.4 µg/m3 25.57 °C 80.33 % 1,007.53 mbar 3.73 m/s 158.84 Deg 1.06 µg/m3
2022-06-18 09:00 10.13 µg/m3 -0.02 µg/m3 79.74 µg/m3 28.07 µg/m3 17.04 µg/m3 24.41 °C 79.88 % 1,007.87 mbar 1.62 m/s 267.12 Deg 1.3 µg/m3
2022-06-18 01:00 16.05 µg/m3 0.08 µg/m3 77.95 µg/m3 42.69 µg/m3 15.74 µg/m3 26.13 °C 60.96 % 1,009.17 mbar 1.8 m/s 304.44 Deg 1.47 µg/m3
2022-06-17 17:00 11.81 µg/m3 -0.05 µg/m3 103.05 µg/m3 23.2 µg/m3 8.71 µg/m3 27.63 °C 56.89 % 1,010.03 mbar 3.11 m/s 167.97 Deg 2.6 µg/m3
2022-06-17 09:00 31.58 µg/m3 0.05 µg/m3 59.42 µg/m3 19.99 µg/m3 9.63 µg/m3 24.5 °C 64.39 % 1,010.25 mbar 1.46 m/s 294.67 Deg 4.45 µg/m3
2022-06-17 01:00 19.74 µg/m3 -0.01 µg/m3 69.56 µg/m3 25.21 µg/m3 10.24 µg/m3 24.66 °C 70.17 % 1,010.70 mbar 1.48 m/s 238.67 Deg 1.13 µg/m3
2022-06-16 17:00 4.96 µg/m3 2.85 µg/m3 100.82 µg/m3 25.39 µg/m3 9.46 µg/m3 26.73 °C 68.22 % 1,010.42 mbar 2.85 m/s 164.18 Deg 1.16 µg/m3
2022-06-16 09:00 35.04 µg/m3 0.07 µg/m3 63.39 µg/m3 25.16 µg/m3 10.49 µg/m3 24.15 °C 65.81 % 1,010.20 mbar 1.19 m/s 294.97 Deg 4.2 µg/m3
2022-06-16 01:00 18.06 µg/m3 -0.01 µg/m3 96.5 µg/m3 26.51 µg/m3 9.74 µg/m3 25.04 °C 63.05 % 1,010.78 mbar 1.76 m/s 144.24 Deg 1.28 µg/m3
2022-06-15 17:00 13.32 µg/m3 -0.01 µg/m3 114.67 µg/m3 23.6 µg/m3 7.82 µg/m3 27.81 °C 50.2 % 1,010.93 mbar 2.63 m/s 136.3 Deg 2.65 µg/m3
2022-06-15 09:00 44.81 µg/m3 0.15 µg/m3 67.71 µg/m3 26.17 µg/m3 8.6 µg/m3 24.59 °C 58.49 % 1,009.93 mbar 1.25 m/s 291.95 Deg 14.93 µg/m3
2022-06-15 01:00 11.83 µg/m3 -0.04 µg/m3 95.02 µg/m3 27.98 µg/m3 6.09 µg/m3 24.36 °C 77.85 % 1,009.12 mbar 1.54 m/s 249.82 Deg 0.88 µg/m3
2022-06-14 17:00 3.25 µg/m3 -0.09 µg/m3 116.04 µg/m3 9.16 µg/m3 6.55 µg/m3 26.21 °C 64.22 % 1,008.21 mbar 2.65 m/s 178.75 Deg 0.89 µg/m3
2022-06-14 09:00 16.09 µg/m3 -0.1 µg/m3 79.85 µg/m3 28.37 µg/m3 10.9 µg/m3 22.42 °C 87.68 % 1,007.40 mbar 1.06 m/s 189.4 Deg 1.27 µg/m3
2022-06-14 01:00 13.4 µg/m3 -0.1 µg/m3 100.24 µg/m3 33.81 µg/m3 12.16 µg/m3 23.6 °C 79.52 % 1,007.34 mbar 1.85 m/s 211.06 Deg 1.09 µg/m3
2022-06-13 17:00 9.74 µg/m3 -0.09 µg/m3 118.68 µg/m3 18.81 µg/m3 7.32 µg/m3 26.9 °C 52.29 % 1,007.74 mbar 2.83 m/s 123.28 Deg 1.89 µg/m3
2022-06-13 09:00 17.87 µg/m3 -0.08 µg/m3 85.75 µg/m3 27.99 µg/m3 8.98 µg/m3 22.9 °C 75.64 % 1,007.35 mbar 1.81 m/s 70.4 Deg 2.5 µg/m3
2022-06-13 01:00 13.36 µg/m3 -0.09 µg/m3 96.87 µg/m3 37.48 µg/m3 8.74 µg/m3 24.74 °C 65.68 % 1,007.75 mbar 2.41 m/s 319.37 Deg 1.14 µg/m3
2022-06-12 17:00 6.62 µg/m3 -0.1 µg/m3 108.3 µg/m3 10.13 µg/m3 5.99 µg/m3 27.15 °C 48.59 % 1,008.52 mbar 3.73 m/s 145.92 Deg 1.51 µg/m3
2022-06-12 09:00 14.37 µg/m3 -0.09 µg/m3 75.46 µg/m3 33.51 µg/m3 12.41 µg/m3 22.43 °C 87.68 % 1,008.58 mbar 1.68 m/s 239.66 Deg 2.24 µg/m3
2022-06-12 01:00 10.73 µg/m3 -0.09 µg/m3 91.41 µg/m3 47.2 µg/m3 15.07 µg/m3 23.44 °C 78.8 % 1,007.78 mbar 2.85 m/s 270.32 Deg 1.3 µg/m3
2022-06-11 17:00 9.77 µg/m3 -0.09 µg/m3 98.92 µg/m3 22.6 µg/m3 6.38 µg/m3 26.58 °C 58.72 % 1,006.87 mbar 4.1 m/s 288.44 Deg 2.55 µg/m3
2022-06-11 09:00 10.97 µg/m3 -0.13 µg/m3 87.86 µg/m3 20.19 µg/m3 8.6 µg/m3 22.3 °C 79.54 % 1,005.28 mbar 4.19 m/s 340.03 Deg 1.96 µg/m3
2022-06-11 01:00 8.38 µg/m3 -0.12 µg/m3 88.07 µg/m3 42.12 µg/m3 11.5 µg/m3 22.72 °C 77.29 % 1,003.38 mbar 4.75 m/s 332.62 Deg 1.28 µg/m3
2022-06-10 17:00 10.48 µg/m3 -0.09 µg/m3 85.74 µg/m3 56.38 µg/m3 11.45 µg/m3 24.27 °C 69.08 % 1,001.76 mbar 5.37 m/s 316.31 Deg 3.42 µg/m3
2022-06-10 09:00 10.07 µg/m3 -0.11 µg/m3 68.66 µg/m3 39.3 µg/m3 11.13 µg/m3 21.28 °C 83.54 % 1,001.40 mbar 4.41 m/s 318.6 Deg 2.85 µg/m3
2022-06-10 01:00 5.79 µg/m3 -0.11 µg/m3 79.05 µg/m3 39.34 µg/m3 13 µg/m3 22.38 °C 83.82 % 1,002.06 mbar 4.34 m/s 312.33 Deg 1.4 µg/m3
2022-06-09 17:00 9.8 µg/m3 -0.05 µg/m3 81.94 µg/m3 38.99 µg/m3 6.61 µg/m3 26.8 °C 55.7 % 1,002.53 mbar 4.37 m/s 317.74 Deg 13.56 µg/m3
2022-06-09 09:00 27.99 µg/m3 -0.05 µg/m3 61.17 µg/m3 20.85 µg/m3 9.19 µg/m3 24.54 °C 67.78 % 1,002.83 mbar 2.34 m/s 324.48 Deg 6.71 µg/m3
2022-06-09 01:00 10.47 µg/m3 -0.07 µg/m3 82.38 µg/m3 24.25 µg/m3 6.68 µg/m3 25.78 °C 57.47 % 1,003.83 mbar 2.93 m/s 311.35 Deg 1.68 µg/m3
2022-06-08 17:00 13.6 µg/m3 -0.08 µg/m3 95.58 µg/m3 29.4 µg/m3 9.22 µg/m3 28.7 °C 52.83 % 1,004.33 mbar 2.62 m/s 198.63 Deg 3.07 µg/m3
2022-06-08 09:00 18.72 µg/m3 -0.07 µg/m3 68.12 µg/m3 28.36 µg/m3 12.51 µg/m3 24.36 °C 75.93 % 1,003.61 mbar 3.23 m/s 251.64 Deg 4.22 µg/m3
2022-06-08 01:00 13.5 µg/m3 -0.07 µg/m3 85.61 µg/m3 34.26 µg/m3 11.98 µg/m3 26.05 °C 57.23 % 1,003.99 mbar 2.82 m/s 276.84 Deg 1.23 µg/m3
2022-06-07 17:00 8.25 µg/m3 -0.1 µg/m3 100.05 µg/m3 31.73 µg/m3 9.17 µg/m3 28.54 °C 51.27 % 1,005.11 mbar 3.38 m/s 159.74 Deg 1.92 µg/m3
2022-06-07 09:00 10.21 µg/m3 -0.07 µg/m3 88.2 µg/m3 35.18 µg/m3 11 µg/m3 26.37 °C 55.89 % 1,005.22 mbar 3.37 m/s 232.16 Deg 2.06 µg/m3
2022-06-07 01:00 12.14 µg/m3 -0.08 µg/m3 77.57 µg/m3 56.78 µg/m3 14.26 µg/m3 27.44 °C 53.91 % 1,006.24 mbar 3.36 m/s 320.62 Deg 1.66 µg/m3
2022-06-06 17:00 16.67 µg/m3 -0.03 µg/m3 83.75 µg/m3 57.12 µg/m3 12.86 µg/m3 30.08 °C 53.23 % 1,007.35 mbar 3.63 m/s 312.52 Deg 4.08 µg/m3
2022-06-06 09:00 17.63 µg/m3 -0.02 µg/m3 76.26 µg/m3 50.42 µg/m3 15.53 µg/m3 26.37 °C 60.54 % 1,008.15 mbar 2.47 m/s 307.97 Deg 3.19 µg/m3
2022-06-06 01:00 25.38 µg/m3 0.03 µg/m3 72.82 µg/m3 46.37 µg/m3 16.17 µg/m3 27.77 °C 55.61 % 1,009.13 mbar 1.66 m/s 263.15 Deg 1.81 µg/m3
2022-06-05 17:00 8.99 µg/m3 0.06 µg/m3 93.91 µg/m3 22.52 µg/m3 8.09 µg/m3 32.71 °C 28.67 % 1,009.70 mbar 3.56 m/s 221.64 Deg 1.92 µg/m3
2022-06-05 09:00 25.64 µg/m3 0.14 µg/m3 78.55 µg/m3 32.36 µg/m3 9.8 µg/m3 27.52 °C 40.25 % 1,009.76 mbar 2.04 m/s 328.51 Deg 2.21 µg/m3
2022-06-05 01:00 31.81 µg/m3 0.06 µg/m3 69.34 µg/m3 47.67 µg/m3 16.25 µg/m3 28.54 °C 39.99 % 1,010.27 mbar 1.45 m/s 291.97 Deg 1.71 µg/m3
2022-06-04 17:00 18.35 µg/m3 0.14 µg/m3 90.28 µg/m3 30.26 µg/m3 9.82 µg/m3 31.43 °C 29.35 % 1,010.32 mbar 2.72 m/s 207.91 Deg 3.83 µg/m3
2022-06-04 09:00 49.01 µg/m3 0.2 µg/m3 48.53 µg/m3 39.87 µg/m3 9.12 µg/m3 26.62 °C 35.14 % 1,009.73 mbar 1.88 m/s 311.98 Deg 9.94 µg/m3
2022-06-04 01:00 42.01 µg/m3 -0.02 µg/m3 63.82 µg/m3 38.95 µg/m3 12.35 µg/m3 26.31 °C 47.9 % 1,010.10 mbar 2.37 m/s 228.99 Deg 1.95 µg/m3
2022-06-03 17:00 21.24 µg/m3 -0.01 µg/m3 106.27 µg/m3 38.52 µg/m3 12.2 µg/m3 29.37 °C 41.57 % 1,010.20 mbar 2.48 m/s 122.43 Deg 3.78 µg/m3
2022-06-03 09:00 42.81 µg/m3 0.11 µg/m3 51.19 µg/m3 46.69 µg/m3 11.8 µg/m3 25.09 °C 49.32 % 1,009.35 mbar 1.46 m/s 255.08 Deg 9.76 µg/m3
2022-06-03 01:00 19.62 µg/m3 -0.06 µg/m3 84.77 µg/m3 62.43 µg/m3 11.75 µg/m3 24.66 °C 62.66 % 1,009.24 mbar 1.35 m/s 187.57 Deg 1.02 µg/m3
2022-06-02 17:00 11.66 µg/m3 -0.09 µg/m3 93.9 µg/m3 18.61 µg/m3 5.98 µg/m3 27.41 °C 48.89 % 1,008.53 mbar 3.77 m/s 148.64 Deg 2.91 µg/m3
2022-06-02 09:00 26.38 µg/m3 -0.02 µg/m3 52.66 µg/m3 51.3 µg/m3 20.64 µg/m3 24.18 °C 80.7 % 1,007.76 mbar 1.42 m/s 110.13 Deg 4.8 µg/m3
2022-06-02 01:00 9.21 µg/m3 -0.06 µg/m3 80.9 µg/m3 54.63 µg/m3 13.87 µg/m3 25.61 °C 63.56 % 1,007.54 mbar 1.26 m/s 169.17 Deg 0.85 µg/m3
2022-06-01 17:00 10.25 µg/m3 -0.04 µg/m3 77.35 µg/m3 38.55 µg/m3 12.1 µg/m3 29.08 °C 50.91 % 1,007.72 mbar 2.44 m/s 159.41 Deg 2.82 µg/m3
2022-06-01 09:00 26.92 µg/m3 0.02 µg/m3 49.61 µg/m3 34.12 µg/m3 8.58 µg/m3 25 °C 56.97 % 1,007.41 mbar 1.93 m/s 190.96 Deg 7.93 µg/m3
2022-06-01 01:00 14.27 µg/m3 -0.04 µg/m3 53.45 µg/m3 46.89 µg/m3 10.64 µg/m3 24.55 °C 67 % 1,008.18 mbar 2.73 m/s 201.15 Deg 1.19 µg/m3
2022-05-31 17:00 17.12 µg/m3 -0.04 µg/m3 68 µg/m3 16.68 µg/m3 7.76 µg/m3 27.61 °C 50.02 % 1,008.07 mbar 4.25 m/s 195.99 Deg 5.61 µg/m3
2022-05-31 09:00 27.95 µg/m3 0.03 µg/m3 45.28 µg/m3 32.92 µg/m3 9.69 µg/m3 22.94 °C 70.72 % 1,007.50 mbar 2.46 m/s 182.21 Deg 10.35 µg/m3
2022-05-31 01:00 29.08 µg/m3 -0.06 µg/m3 61.64 µg/m3 25.26 µg/m3 11.61 µg/m3 23.12 °C 72.61 % 1,006.42 mbar 4.11 m/s 199.33 Deg 1.63 µg/m3
2022-05-30 17:00 23.32 µg/m3 -0.03 µg/m3 81.95 µg/m3 22.13 µg/m3 7.58 µg/m3 26.27 °C 52.03 % 1,005.47 mbar 5.15 m/s 188.55 Deg 5.2 µg/m3
2022-05-30 09:00 16.37 µg/m3 -0.03 µg/m3 73.79 µg/m3 16 µg/m3 5.7 µg/m3 23.04 °C 58.26 % 1,004.42 mbar 2.12 m/s 250.13 Deg 2.54 µg/m3
2022-05-30 01:00 10.28 µg/m3 -0.08 µg/m3 89.49 µg/m3 28.53 µg/m3 11.09 µg/m3 22.76 °C 62.86 % 1,003.32 mbar 2.55 m/s 275.13 Deg 1.17 µg/m3
2022-05-29 17:00 7.66 µg/m3 -0.12 µg/m3 92.13 µg/m3 24.6 µg/m3 7.55 µg/m3 23.72 °C 69.45 % 1,001.40 mbar 4.37 m/s 304.28 Deg 2.23 µg/m3
2022-05-29 09:00 6.52 µg/m3 -0.14 µg/m3 81.45 µg/m3 19.3 µg/m3 10.71 µg/m3 19.98 °C 92.91 % 999.30 mbar 2.95 m/s 313.04 Deg 1.49 µg/m3
2022-05-29 01:00 4.11 µg/m3 -0.13 µg/m3 89.62 µg/m3 24.28 µg/m3 6.44 µg/m3 20.98 °C 89.63 % 999.86 mbar 3.52 m/s 246.85 Deg 0.92 µg/m3
2022-05-28 17:00 8.02 µg/m3 -0.09 µg/m3 94.3 µg/m3 16.39 µg/m3 6.17 µg/m3 23.56 °C 64.93 % 1,001.46 mbar 3.43 m/s 294.71 Deg 2.24 µg/m3
2022-05-28 09:00 12.1 µg/m3 -0.11 µg/m3 76.18 µg/m3 25.31 µg/m3 10.25 µg/m3 20.57 °C 86.82 % 1,002.70 mbar 2.9 m/s 316.52 Deg 2.22 µg/m3
2022-05-28 01:00 9 µg/m3 -0.12 µg/m3 73.69 µg/m3 49.71 µg/m3 14.25 µg/m3 21.01 °C 96.27 % 1,003.19 mbar 2.35 m/s 257.22 Deg 0.96 µg/m3
2022-05-27 17:00 1.65 µg/m3 -0.13 µg/m3 90.54 µg/m3 34.81 µg/m3 10.32 µg/m3 23.36 °C 77.96 % 1,004.13 mbar 6.97 m/s 143.59 Deg 0.87 µg/m3
2022-05-27 09:00 6.84 µg/m3 -0.05 µg/m3 85.16 µg/m3 20.46 µg/m3 6.85 µg/m3 22.16 °C 80.16 % 1,006.83 mbar 4.13 m/s 177.42 Deg 1.17 µg/m3
2022-05-27 01:00 1.07 µg/m3 -0.1 µg/m3 82.92 µg/m3 27.74 µg/m3 6.65 µg/m3 21.73 °C 91.18 % 1,008.48 mbar 4.79 m/s 135.18 Deg 0.62 µg/m3
2022-05-26 17:00 0.98 µg/m3 -0.1 µg/m3 88.31 µg/m3 12.63 µg/m3 6.3 µg/m3 24.78 °C 68.69 % 1,009.97 mbar 5.01 m/s 129.2 Deg 0.82 µg/m3

It is to be noted that the data is provisional and subject to quality assurance procedures. For validated data kindly refer your request to contact.air@era.org.mt